sensor_id;sensor_type;location;lat;lon;timestamp;P1;P2;P0
82823;PMS5003;72575;46.834;-71.234;2023-10-31T00:00:09;16.86;15;8.95
82823;PMS5003;72575;46.834;-71.234;2023-10-31T00:02:35;12.05;11.68;7.23
82823;PMS5003;72575;46.834;-71.234;2023-10-31T00:04:59;16.29;14.62;7.81
82823;PMS5003;72575;46.834;-71.234;2023-10-31T00:07:26;15.48;12.81;8.1
82823;PMS5003;72575;46.834;-71.234;2023-10-31T00:10:08;14.91;14.27;9.18
82823;PMS5003;72575;46.834;-71.234;2023-10-31T00:12:32;14.91;13.86;7.36
82823;PMS5003;72575;46.834;-71.234;2023-10-31T00:14:58;15.81;14.81;9.24
82823;PMS5003;72575;46.834;-71.234;2023-10-31T00:17:24;17.24;16;10.1
82823;PMS5003;72575;46.834;-71.234;2023-10-31T00:19:49;14.05;13.52;8.43
82823;PMS5003;72575;46.834;-71.234;2023-10-31T00:22:13;15.43;14.33;9
82823;PMS5003;72575;46.834;-71.234;2023-10-31T00:24:39;16.24;16;9.95
82823;PMS5003;72575;46.834;-71.234;2023-10-31T00:27:05;18.27;16.82;10.27
82823;PMS5003;72575;46.834;-71.234;2023-10-31T00:29:31;15.62;15.24;7.9
82823;PMS5003;72575;46.834;-71.234;2023-10-31T00:31:55;11.24;11;6.9
82823;PMS5003;72575;46.834;-71.234;2023-10-31T00:34:22;7.52;7.52;3.95
82823;PMS5003;72575;46.834;-71.234;2023-10-31T00:36:49;13;11.24;6.48
82823;PMS5003;72575;46.834;-71.234;2023-10-31T00:39:11;12.95;11.9;8.76
82823;PMS5003;72575;46.834;-71.234;2023-10-31T00:41:39;7.52;7.1;5.24
82823;PMS5003;72575;46.834;-71.234;2023-10-31T00:44:05;7.55;7.36;2.55
82823;PMS5003;72575;46.834;-71.234;2023-10-31T00:46:29;6;5.52;2.81
82823;PMS5003;72575;46.834;-71.234;2023-10-31T00:48:55;6.05;5.81;3
82823;PMS5003;72575;46.834;-71.234;2023-10-31T00:51:21;5.9;5.52;2.67
82823;PMS5003;72575;46.834;-71.234;2023-10-31T00:53:44;6.86;5.9;4.62
82823;PMS5003;72575;46.834;-71.234;2023-10-31T00:56:10;8.86;7.67;4.33
82823;PMS5003;72575;46.834;-71.234;2023-10-31T00:58:36;8.48;8.24;4.38
82823;PMS5003;72575;46.834;-71.234;2023-10-31T01:01:01;7.09;7;4.32
82823;PMS5003;72575;46.834;-71.234;2023-10-31T01:03:27;7.48;7.29;3.24
82823;PMS5003;72575;46.834;-71.234;2023-10-31T01:05:52;7.38;6.9;4.57
82823;PMS5003;72575;46.834;-71.234;2023-10-31T01:08:19;11.43;9.29;5.52
82823;PMS5003;72575;46.834;-71.234;2023-10-31T01:10:42;9.48;8.81;5.52
82823;PMS5003;72575;46.834;-71.234;2023-10-31T01:13:11;9.29;7.48;2.48
82823;PMS5003;72575;46.834;-71.234;2023-10-31T01:15:37;14.25;13.9;6.4
82823;PMS5003;72575;46.834;-71.234;2023-10-31T01:18:03;13.27;12.05;7.36
82823;PMS5003;72575;46.834;-71.234;2023-10-31T01:20:30;9.43;9.43;5.9
82823;PMS5003;72575;46.834;-71.234;2023-10-31T01:22:53;11.52;11.52;7
82823;PMS5003;72575;46.834;-71.234;2023-10-31T01:25:18;11.1;9.71;6
82823;PMS5003;72575;46.834;-71.234;2023-10-31T01:27:44;17.21;15.26;6.68
82823;PMS5003;72575;46.834;-71.234;2023-10-31T01:30:11;14.1;11.19;5.95
82823;PMS5003;72575;46.834;-71.234;2023-10-31T01:32:34;15.95;15.19;7.95
82823;PMS5003;72575;46.834;-71.234;2023-10-31T01:35:04;12;12;7.5
82823;PMS5003;72575;46.834;-71.234;2023-10-31T01:37:27;18.42;16.05;7.68
82823;PMS5003;72575;46.834;-71.234;2023-10-31T01:39:51;14.1;13.81;8.1
82823;PMS5003;72575;46.834;-71.234;2023-10-31T01:42:18;10.76;10.76;6.71
82823;PMS5003;72575;46.834;-71.234;2023-10-31T01:44:42;14.9;13.19;7.9
82823;PMS5003;72575;46.834;-71.234;2023-10-31T01:47:07;16.1;14.19;7.9
82823;PMS5003;72575;46.834;-71.234;2023-10-31T01:49:35;12.52;11.95;6.67
82823;PMS5003;72575;46.834;-71.234;2023-10-31T01:51:59;17;16.64;10.77
82823;PMS5003;72575;46.834;-71.234;2023-10-31T01:54:24;16.9;16.48;9.57
82823;PMS5003;72575;46.834;-71.234;2023-10-31T01:56:51;15.76;14.71;8.33
82823;PMS5003;72575;46.834;-71.234;2023-10-31T01:59:16;22;20.42;9.74
82823;PMS5003;72575;46.834;-71.234;2023-10-31T02:01:40;14.05;12.9;8.1
82823;PMS5003;72575;46.834;-71.234;2023-10-31T02:04:07;15.71;12.86;6.19
82823;PMS5003;72575;46.834;-71.234;2023-10-31T02:06:32;18.14;16.57;9.62
82823;PMS5003;72575;46.834;-71.234;2023-10-31T02:08:58;17.18;15.55;8.05
82823;PMS5003;72575;46.834;-71.234;2023-10-31T02:11:24;17;16.1;10.1
82823;PMS5003;72575;46.834;-71.234;2023-10-31T02:13:48;16.19;15.71;8.57
82823;PMS5003;72575;46.834;-71.234;2023-10-31T02:16:13;17;15.57;8.86
82823;PMS5003;72575;46.834;-71.234;2023-10-31T02:18:40;21.16;19.84;9.26
82823;PMS5003;72575;46.834;-71.234;2023-10-31T02:21:04;15.52;15.52;7.95
82823;PMS5003;72575;46.834;-71.234;2023-10-31T02:23:30;16.33;16.19;10.57
82823;PMS5003;72575;46.834;-71.234;2023-10-31T02:25:56;15.91;15.64;9.14
82823;PMS5003;72575;46.834;-71.234;2023-10-31T02:28:19;21.37;19.37;10.63
82823;PMS5003;72575;46.834;-71.234;2023-10-31T02:30:46;23.71;19.38;11.24
82823;PMS5003;72575;46.834;-71.234;2023-10-31T02:33:11;16.1;15.71;8.48
82823;PMS5003;72575;46.834;-71.234;2023-10-31T02:35:35;16.95;16.62;9.33
82823;PMS5003;72575;46.834;-71.234;2023-10-31T02:38:00;21.52;16.86;9.71
82823;PMS5003;72575;46.834;-71.234;2023-10-31T02:40:27;17.19;17.19;10.81
82823;PMS5003;72575;46.834;-71.234;2023-10-31T02:42:53;16.18;16.18;8.23
82823;PMS5003;72575;46.834;-71.234;2023-10-31T02:45:19;18.14;16.19;7.52
82823;PMS5003;72575;46.834;-71.234;2023-10-31T02:47:43;16.9;16.38;9.48
82823;PMS5003;72575;46.834;-71.234;2023-10-31T02:50:09;21.57;21;11
82823;PMS5003;72575;46.834;-71.234;2023-10-31T02:52:35;21.61;20.67;11.17
82823;PMS5003;72575;46.834;-71.234;2023-10-31T02:54:58;16.76;16.24;8.95
82823;PMS5003;72575;46.834;-71.234;2023-10-31T02:57:24;28.16;26.58;11.84
82823;PMS5003;72575;46.834;-71.234;2023-10-31T02:59:50;24.1;22.05;11.15
82823;PMS5003;72575;46.834;-71.234;2023-10-31T03:02:17;25.44;25.28;11.28
82823;PMS5003;72575;46.834;-71.234;2023-10-31T03:04:40;18.48;17.81;11.62
82823;PMS5003;72575;46.834;-71.234;2023-10-31T03:07:06;19.38;18.05;10.52
82823;PMS5003;72575;46.834;-71.234;2023-10-31T03:09:31;22.53;21.37;10.95
82823;PMS5003;72575;46.834;-71.234;2023-10-31T03:11:57;21.29;20.76;11.24
82823;PMS5003;72575;46.834;-71.234;2023-10-31T03:14:23;21.38;19.62;8
82823;PMS5003;72575;46.834;-71.234;2023-10-31T03:16:49;19.36;18.18;9.73
82823;PMS5003;72575;46.834;-71.234;2023-10-31T03:19:12;19.76;18.43;10.62
82823;PMS5003;72575;46.834;-71.234;2023-10-31T03:21:38;13.05;12.48;6.24
82823;PMS5003;72575;46.834;-71.234;2023-10-31T03:24:04;24.63;22.95;10.53
82823;PMS5003;72575;46.834;-71.234;2023-10-31T03:26:30;18.48;18.48;10.38
82823;PMS5003;72575;46.834;-71.234;2023-10-31T03:28:56;14.48;14.24;9.71
82823;PMS5003;72575;46.834;-71.234;2023-10-31T03:31:19;20.33;17.52;10.05
82823;PMS5003;72575;46.834;-71.234;2023-10-31T03:33:45;22.05;20.55;10.86
82823;PMS5003;72575;46.834;-71.234;2023-10-31T03:36:12;21.19;18.29;9.95
82823;PMS5003;72575;46.834;-71.234;2023-10-31T03:38:36;23.37;23.11;10.84
82823;PMS5003;72575;46.834;-71.234;2023-10-31T03:41:02;21.33;18.81;8.38
82823;PMS5003;72575;46.834;-71.234;2023-10-31T03:43:27;25.3;24.3;11.85
82823;PMS5003;72575;46.834;-71.234;2023-10-31T03:45:53;31.05;29.26;12.79
82823;PMS5003;72575;46.834;-71.234;2023-10-31T03:48:16;26.32;25.53;11.95
82823;PMS5003;72575;46.834;-71.234;2023-10-31T03:50:43;26.86;23.86;11.52
82823;PMS5003;72575;46.834;-71.234;2023-10-31T03:53:08;20.75;19.3;9.5
82823;PMS5003;72575;46.834;-71.234;2023-10-31T03:55:35;22.81;17.38;9.86
82823;PMS5003;72575;46.834;-71.234;2023-10-31T03:58:00;18.14;16.43;9.81
82823;PMS5003;72575;46.834;-71.234;2023-10-31T04:00:23;18.76;17.33;10.33
82823;PMS5003;72575;46.834;-71.234;2023-10-31T04:02:49;20.29;17.95;9.76
82823;PMS5003;72575;46.834;-71.234;2023-10-31T04:05:16;19.86;18.86;10.19
82823;PMS5003;72575;46.834;-71.234;2023-10-31T04:07:43;22.52;19.29;10.33
82823;PMS5003;72575;46.834;-71.234;2023-10-31T04:10:07;22.84;22.68;8.53
82823;PMS5003;72575;46.834;-71.234;2023-10-31T04:12:34;26;21.71;10.29
82823;PMS5003;72575;46.834;-71.234;2023-10-31T04:14:58;20.43;17.67;9.67
82823;PMS5003;72575;46.834;-71.234;2023-10-31T04:17:24;24.37;22.11;9.32
82823;PMS5003;72575;46.834;-71.234;2023-10-31T04:19:47;16.67;15.76;7.76
82823;PMS5003;72575;46.834;-71.234;2023-10-31T04:22:13;15.43;13.71;8.1
82823;PMS5003;72575;46.834;-71.234;2023-10-31T04:24:39;14.55;13.86;6.68
82823;PMS5003;72575;46.834;-71.234;2023-10-31T04:27:06;14.05;12.29;6.48
82823;PMS5003;72575;46.834;-71.234;2023-10-31T04:29:30;16.89;16;6.32
82823;PMS5003;72575;46.834;-71.234;2023-10-31T04:31:56;6.86;6.62;5.29
82823;PMS5003;72575;46.834;-71.234;2023-10-31T04:34:20;10.29;10.05;6.33
82823;PMS5003;72575;46.834;-71.234;2023-10-31T04:36:46;13.43;10.62;5.52
82823;PMS5003;72575;46.834;-71.234;2023-10-31T04:39:12;12.76;12.48;7.19
82823;PMS5003;72575;46.834;-71.234;2023-10-31T04:41:36;9.09;7.32;3.77
82823;PMS5003;72575;46.834;-71.234;2023-10-31T04:44:02;9.62;6.33;2.1
82823;PMS5003;72575;46.834;-71.234;2023-10-31T04:46:29;4.95;4.05;2.24
82823;PMS5003;72575;46.834;-71.234;2023-10-31T04:48:52;8.38;6.24;3.19
82823;PMS5003;72575;46.834;-71.234;2023-10-31T04:51:19;6;6;2.9
82823;PMS5003;72575;46.834;-71.234;2023-10-31T04:53:43;3.43;3.43;1.19
82823;PMS5003;72575;46.834;-71.234;2023-10-31T04:56:12;5.1;4.86;2.52
82823;PMS5003;72575;46.834;-71.234;2023-10-31T04:58:36;4.82;4.82;2.86
82823;PMS5003;72575;46.834;-71.234;2023-10-31T05:00:59;5.24;4.33;2.76
82823;PMS5003;72575;46.834;-71.234;2023-10-31T05:03:25;4.43;4.43;2
82823;PMS5003;72575;46.834;-71.234;2023-10-31T05:05:52;5.86;5.57;3.24
82823;PMS5003;72575;46.834;-71.234;2023-10-31T05:08:16;2.81;1.95;0.95
82823;PMS5003;72575;46.834;-71.234;2023-10-31T05:10:42;3.1;2.19;1.19
82823;PMS5003;72575;46.834;-71.234;2023-10-31T05:13:05;4.81;2.48;1.05
82823;PMS5003;72575;46.834;-71.234;2023-10-31T05:15:32;0.86;0.86;0.18
82823;PMS5003;72575;46.834;-71.234;2023-10-31T05:17:58;1;1;1
82823;PMS5003;72575;46.834;-71.234;2023-10-31T05:20:22;0.52;0.52;0
82823;PMS5003;72575;46.834;-71.234;2023-10-31T05:22:48;3.67;3;2.1
82823;PMS5003;72575;46.834;-71.234;2023-10-31T05:25:14;5.71;5.71;2.52
82823;PMS5003;72575;46.834;-71.234;2023-10-31T05:27:40;7.43;7;4.24
82823;PMS5003;72575;46.834;-71.234;2023-10-31T05:30:05;3.86;3;1.1
82823;PMS5003;72575;46.834;-71.234;2023-10-31T05:32:32;4.45;3.36;1.18
82823;PMS5003;72575;46.834;-71.234;2023-10-31T05:34:56;0.62;0.62;0
82823;PMS5003;72575;46.834;-71.234;2023-10-31T05:37:22;0.9;0.9;0.9
82823;PMS5003;72575;46.834;-71.234;2023-10-31T05:39:46;0.48;0;0
82823;PMS5003;72575;46.834;-71.234;2023-10-31T05:42:12;0.33;0.24;0
82823;PMS5003;72575;46.834;-71.234;2023-10-31T05:44:37;0.76;0;0
82823;PMS5003;72575;46.834;-71.234;2023-10-31T05:47:02;0;0;0
82823;PMS5003;72575;46.834;-71.234;2023-10-31T05:49:27;0;0;0
82823;PMS5003;72575;46.834;-71.234;2023-10-31T05:51:55;0;0;0
82823;PMS5003;72575;46.834;-71.234;2023-10-31T05:54:18;0;0;0
82823;PMS5003;72575;46.834;-71.234;2023-10-31T05:56:45;3.67;3.67;1.48
82823;PMS5003;72575;46.834;-71.234;2023-10-31T05:59:09;12.62;8;5.05
82823;PMS5003;72575;46.834;-71.234;2023-10-31T06:01:35;10.95;9.76;4.24
82823;PMS5003;72575;46.834;-71.234;2023-10-31T06:04:00;2.57;1.57;0.86
82823;PMS5003;72575;46.834;-71.234;2023-10-31T06:06:25;8.45;6.55;3.64
82823;PMS5003;72575;46.834;-71.234;2023-10-31T06:08:51;6.1;6.1;2.38
82823;PMS5003;72575;46.834;-71.234;2023-10-31T06:11:16;1.38;1.38;0.38
82823;PMS5003;72575;46.834;-71.234;2023-10-31T06:13:41;2.71;2.52;1.67
82823;PMS5003;72575;46.834;-71.234;2023-10-31T06:16:08;0.24;0.24;0.1
82823;PMS5003;72575;46.834;-71.234;2023-10-31T06:18:33;0.24;0.24;0
82823;PMS5003;72575;46.834;-71.234;2023-10-31T06:20:56;4.24;3.19;2
82823;PMS5003;72575;46.834;-71.234;2023-10-31T06:23:23;4.55;3.18;2
82823;PMS5003;72575;46.834;-71.234;2023-10-31T06:25:50;2.62;2.38;1
82823;PMS5003;72575;46.834;-71.234;2023-10-31T06:28:13;5.05;5.05;2.38
82823;PMS5003;72575;46.834;-71.234;2023-10-31T06:30:40;0;0;0
82823;PMS5003;72575;46.834;-71.234;2023-10-31T06:33:06;15.43;13.62;6.14
82823;PMS5003;72575;46.834;-71.234;2023-10-31T06:35:30;11.62;10.95;5.24
82823;PMS5003;72575;46.834;-71.234;2023-10-31T06:37:56;13.76;11.52;6.52
82823;PMS5003;72575;46.834;-71.234;2023-10-31T06:40:23;5.5;4.91;1.86
82823;PMS5003;72575;46.834;-71.234;2023-10-31T06:42:47;2.24;2.1;0.76
82823;PMS5003;72575;46.834;-71.234;2023-10-31T06:45:11;1;1;0
82823;PMS5003;72575;46.834;-71.234;2023-10-31T06:47:39;0.24;0.24;0
82823;PMS5003;72575;46.834;-71.234;2023-10-31T06:50:02;0.1;0;0
82823;PMS5003;72575;46.834;-71.234;2023-10-31T06:52:29;0;0;0
82823;PMS5003;72575;46.834;-71.234;2023-10-31T06:54:52;0.38;0.38;0
82823;PMS5003;72575;46.834;-71.234;2023-10-31T06:57:20;1.45;0.86;0
82823;PMS5003;72575;46.834;-71.234;2023-10-31T06:59:46;0;0;0
82823;PMS5003;72575;46.834;-71.234;2023-10-31T07:02:10;0.1;0.1;0
82823;PMS5003;72575;46.834;-71.234;2023-10-31T07:04:35;0.67;0;0
82823;PMS5003;72575;46.834;-71.234;2023-10-31T07:06:59;0.62;0.62;0.48
82823;PMS5003;72575;46.834;-71.234;2023-10-31T07:09:26;0.52;0.52;0
82823;PMS5003;72575;46.834;-71.234;2023-10-31T07:12:02;0.19;0;0
82823;PMS5003;72575;46.834;-71.234;2023-10-31T07:14:28;0.23;0.23;0
82823;PMS5003;72575;46.834;-71.234;2023-10-31T07:16:52;0.24;0.24;0
82823;PMS5003;72575;46.834;-71.234;2023-10-31T07:19:18;1;1;0.1
82823;PMS5003;72575;46.834;-71.234;2023-10-31T07:21:45;1.24;0.1;0
82823;PMS5003;72575;46.834;-71.234;2023-10-31T07:24:09;0.24;0.24;0
82823;PMS5003;72575;46.834;-71.234;2023-10-31T07:26:34;0.19;0.19;0
82823;PMS5003;72575;46.834;-71.234;2023-10-31T07:29:00;0;0;0
82823;PMS5003;72575;46.834;-71.234;2023-10-31T07:31:24;1;1;0.9
82823;PMS5003;72575;46.834;-71.234;2023-10-31T07:33:51;0.24;0.24;0
82823;PMS5003;72575;46.834;-71.234;2023-10-31T07:36:15;0.52;0.38;0
82823;PMS5003;72575;46.834;-71.234;2023-10-31T07:38:41;1;1;0.19
82823;PMS5003;72575;46.834;-71.234;2023-10-31T07:41:07;0.1;0.1;0
82823;PMS5003;72575;46.834;-71.234;2023-10-31T07:43:31;0;0;0
82823;PMS5003;72575;46.834;-71.234;2023-10-31T07:45:58;0;0;0
82823;PMS5003;72575;46.834;-71.234;2023-10-31T07:48:21;0.48;0.48;0
82823;PMS5003;72575;46.834;-71.234;2023-10-31T07:50:48;0.48;0;0
82823;PMS5003;72575;46.834;-71.234;2023-10-31T07:53:12;0.81;0.81;0
82823;PMS5003;72575;46.834;-71.234;2023-10-31T07:55:38;0.76;0.76;0.38
82823;PMS5003;72575;46.834;-71.234;2023-10-31T07:58:04;1;1;0
82823;PMS5003;72575;46.834;-71.234;2023-10-31T08:00:28;0;0;0
82823;PMS5003;72575;46.834;-71.234;2023-10-31T08:02:57;0.5;0.5;0
82823;PMS5003;72575;46.834;-71.234;2023-10-31T08:05:22;0.67;0.67;0
82823;PMS5003;72575;46.834;-71.234;2023-10-31T08:07:45;0;0;0
82823;PMS5003;72575;46.834;-71.234;2023-10-31T08:10:11;0.24;0.24;0
82823;PMS5003;72575;46.834;-71.234;2023-10-31T08:12:35;0.62;0.1;0.1
82823;PMS5003;72575;46.834;-71.234;2023-10-31T08:15:02;1;1;0
82823;PMS5003;72575;46.834;-71.234;2023-10-31T08:17:27;0.48;0.24;0
82823;PMS5003;72575;46.834;-71.234;2023-10-31T08:19:53;1.5;1.5;0
82823;PMS5003;72575;46.834;-71.234;2023-10-31T08:22:19;0.9;0.9;0.05
82823;PMS5003;72575;46.834;-71.234;2023-10-31T08:24:42;0.81;0.81;0
82823;PMS5003;72575;46.834;-71.234;2023-10-31T08:27:08;0;0;0
82823;PMS5003;72575;46.834;-71.234;2023-10-31T08:29:35;0.81;0.81;0
82823;PMS5003;72575;46.834;-71.234;2023-10-31T08:31:59;0.05;0.05;0
82823;PMS5003;72575;46.834;-71.234;2023-10-31T08:34:25;0.81;0.81;0
82823;PMS5003;72575;46.834;-71.234;2023-10-31T08:36:51;0;0;0
82823;PMS5003;72575;46.834;-71.234;2023-10-31T08:39:15;0.19;0.19;0
82823;PMS5003;72575;46.834;-71.234;2023-10-31T08:41:49;0.76;0;0
82823;PMS5003;72575;46.834;-71.234;2023-10-31T08:46:50;0.27;0.27;0
82823;PMS5003;72575;46.834;-71.234;2023-10-31T08:49:15;0.52;0.52;0
82823;PMS5003;72575;46.834;-71.234;2023-10-31T08:51:41;1.43;1.33;0.05
82823;PMS5003;72575;46.834;-71.234;2023-10-31T08:54:08;0;0;0
82823;PMS5003;72575;46.834;-71.234;2023-10-31T08:56:32;0.38;0.38;0
82823;PMS5003;72575;46.834;-71.234;2023-10-31T08:58:58;1;0.76;0
82823;PMS5003;72575;46.834;-71.234;2023-10-31T09:15:15;0.05;0.05;0
82823;PMS5003;72575;46.834;-71.234;2023-10-31T09:15:29;0;0;0
82823;PMS5003;72575;46.834;-71.234;2023-10-31T09:15:48;0;0;0
82823;PMS5003;72575;46.834;-71.234;2023-10-31T09:16:01;0.86;0.86;0
82823;PMS5003;72575;46.834;-71.234;2023-10-31T09:16:18;0.14;0.14;0
82823;PMS5003;72575;46.834;-71.234;2023-10-31T09:16:26;0.36;0.36;0
82823;PMS5003;72575;46.834;-71.234;2023-10-31T09:17:56;0.59;0.59;0
82823;PMS5003;72575;46.834;-71.234;2023-10-31T09:20:21;0.95;0.95;0.52
82823;PMS5003;72575;46.834;-71.234;2023-10-31T09:22:47;1.24;1.24;0.52
82823;PMS5003;72575;46.834;-71.234;2023-10-31T09:25:12;0.18;0.18;0
82823;PMS5003;72575;46.834;-71.234;2023-10-31T09:27:39;1;1;0.1
82823;PMS5003;72575;46.834;-71.234;2023-10-31T09:30:04;0.95;0.95;0
82823;PMS5003;72575;46.834;-71.234;2023-10-31T09:32:27;0;0;0
82823;PMS5003;72575;46.834;-71.234;2023-10-31T09:34:53;1;1;0.1
82823;PMS5003;72575;46.834;-71.234;2023-10-31T09:37:19;0.19;0.19;0.1
82823;PMS5003;72575;46.834;-71.234;2023-10-31T09:39:42;0.9;0.9;0
82823;PMS5003;72575;46.834;-71.234;2023-10-31T09:42:11;0;0;0
82823;PMS5003;72575;46.834;-71.234;2023-10-31T09:44:36;1;1;0
82823;PMS5003;72575;46.834;-71.234;2023-10-31T09:47:00;2.19;1.24;1
82823;PMS5003;72575;46.834;-71.234;2023-10-31T09:49:26;3.14;1.33;1
82823;PMS5003;72575;46.834;-71.234;2023-10-31T09:51:50;1;1;0.76
82823;PMS5003;72575;46.834;-71.234;2023-10-31T09:54:17;0.81;0.81;0.1
82823;PMS5003;72575;46.834;-71.234;2023-10-31T09:56:41;1;1;0
82823;PMS5003;72575;46.834;-71.234;2023-10-31T09:59:07;1;1;0.73
82823;PMS5003;72575;46.834;-71.234;2023-10-31T10:01:33;1.33;1.33;0.48
82823;PMS5003;72575;46.834;-71.234;2023-10-31T10:03:56;0.76;0.76;0.38
82823;PMS5003;72575;46.834;-71.234;2023-10-31T10:06:24;0.76;0.76;0.24
82823;PMS5003;72575;46.834;-71.234;2023-10-31T10:08:49;1;1;0.95
82823;PMS5003;72575;46.834;-71.234;2023-10-31T10:11:13;0.67;0.67;0
82823;PMS5003;72575;46.834;-71.234;2023-10-31T10:13:40;1.62;1.62;0.9
82823;PMS5003;72575;46.834;-71.234;2023-10-31T10:16:06;1;1;0.55
82823;PMS5003;72575;46.834;-71.234;2023-10-31T10:18:30;2.48;1.62;1
82823;PMS5003;72575;46.834;-71.234;2023-10-31T10:20:58;1;1;0
82823;PMS5003;72575;46.834;-71.234;2023-10-31T10:23:22;0.95;0.24;0
82823;PMS5003;72575;46.834;-71.234;2023-10-31T10:25:49;1.25;1.25;0.75
82823;PMS5003;72575;46.834;-71.234;2023-10-31T10:28:12;3.1;2.52;0.9
82823;PMS5003;72575;46.834;-71.234;2023-10-31T10:30:38;1.81;1;0.76
82823;PMS5003;72575;46.834;-71.234;2023-10-31T10:33:04;2;2;1.09
82823;PMS5003;72575;46.834;-71.234;2023-10-31T10:35:28;2;2;0.24
82823;PMS5003;72575;46.834;-71.234;2023-10-31T10:37:54;0.75;0.75;0
82823;PMS5003;72575;46.834;-71.234;2023-10-31T10:40:18;1.65;1.65;1
82823;PMS5003;72575;46.834;-71.234;2023-10-31T10:42:45;1.05;1.05;0.76
82823;PMS5003;72575;46.834;-71.234;2023-10-31T10:45:09;2;2;1
82823;PMS5003;72575;46.834;-71.234;2023-10-31T10:47:36;3.6;2.1;1.1
82823;PMS5003;72575;46.834;-71.234;2023-10-31T10:50:01;3.43;3.43;1.71
82823;PMS5003;72575;46.834;-71.234;2023-10-31T10:52:28;1.62;1.62;1
82823;PMS5003;72575;46.834;-71.234;2023-10-31T10:54:53;3.55;3.55;1.75
82823;PMS5003;72575;46.834;-71.234;2023-10-31T10:57:20;2.1;2.1;1.25
82823;PMS5003;72575;46.834;-71.234;2023-10-31T10:59:42;1.1;1.1;0.25
82823;PMS5003;72575;46.834;-71.234;2023-10-31T11:02:07;1.67;1;0.67
82823;PMS5003;72575;46.834;-71.234;2023-10-31T11:04:32;1.52;1.52;0.95
82823;PMS5003;72575;46.834;-71.234;2023-10-31T11:06:58;0.29;0.29;0
82823;PMS5003;72575;46.834;-71.234;2023-10-31T11:09:25;1.4;1.4;1
82823;PMS5003;72575;46.834;-71.234;2023-10-31T11:11:49;2;2;1
82823;PMS5003;72575;46.834;-71.234;2023-10-31T11:14:15;2.1;1.62;1
82823;PMS5003;72575;46.834;-71.234;2023-10-31T11:16:41;1.55;1.55;1
82823;PMS5003;72575;46.834;-71.234;2023-10-31T11:19:04;2.95;2.2;1.2
82823;PMS5003;72575;46.834;-71.234;2023-10-31T11:21:31;1.75;1.75;1
82823;PMS5003;72575;46.834;-71.234;2023-10-31T11:23:57;3.05;3.05;1.24
82823;PMS5003;72575;46.834;-71.234;2023-10-31T11:26:25;1.75;1.75;1
82823;PMS5003;72575;46.834;-71.234;2023-10-31T11:28:50;2.15;1.35;1
82823;PMS5003;72575;46.834;-71.234;2023-10-31T11:31:12;2.6;2.4;1
82823;PMS5003;72575;46.834;-71.234;2023-10-31T11:33:39;1.15;1;0.75
82823;PMS5003;72575;46.834;-71.234;2023-10-31T11:36:05;1.95;1.95;1.26
82823;PMS5003;72575;46.834;-71.234;2023-10-31T11:38:32;3.5;2;1.25
82823;PMS5003;72575;46.834;-71.234;2023-10-31T11:41:00;4.33;4.33;1.43
82823;PMS5003;72575;46.834;-71.234;2023-10-31T11:43:20;4.1;3.5;1.1
82823;PMS5003;72575;46.834;-71.234;2023-10-31T11:45:45;2.15;2.05;0.95
82823;PMS5003;72575;46.834;-71.234;2023-10-31T11:48:12;1.95;1.95;0.95
82823;PMS5003;72575;46.834;-71.234;2023-10-31T11:50:37;1.55;1.55;1
82823;PMS5003;72575;46.834;-71.234;2023-10-31T11:53:03;3.25;3.25;2
82823;PMS5003;72575;46.834;-71.234;2023-10-31T11:55:25;2;2;1.26
82823;PMS5003;72575;46.834;-71.234;2023-10-31T11:57:53;4.24;3.05;1.9
82823;PMS5003;72575;46.834;-71.234;2023-10-31T12:00:21;2;2;1
82823;PMS5003;72575;46.834;-71.234;2023-10-31T12:02:50;2;2;1.55
82823;PMS5003;72575;46.834;-71.234;2023-10-31T12:05:10;2.2;2.2;1.4
82823;PMS5003;72575;46.834;-71.234;2023-10-31T12:07:41;1.52;0.95;0
82823;PMS5003;72575;46.834;-71.234;2023-10-31T12:09:58;3.05;2.19;1.52
82823;PMS5003;72575;46.834;-71.234;2023-10-31T12:12:30;3.3;3.1;1.1
82823;PMS5003;72575;46.834;-71.234;2023-10-31T12:14:50;4;3.57;1.86
82823;PMS5003;72575;46.834;-71.234;2023-10-31T12:17:17;4.6;4.3;2.5
82823;PMS5003;72575;46.834;-71.234;2023-10-31T12:19:40;4;4;2
82823;PMS5003;72575;46.834;-71.234;2023-10-31T12:22:12;2.65;2.6;0.95
82823;PMS5003;72575;46.834;-71.234;2023-10-31T12:24:33;3.2;1.6;0.9
82823;PMS5003;72575;46.834;-71.234;2023-10-31T12:27:00;2.19;1.81;0.81
82823;PMS5003;72575;46.834;-71.234;2023-10-31T12:29:24;3.5;3.4;0.95
82823;PMS5003;72575;46.834;-71.234;2023-10-31T12:31:49;5.86;5.86;2.81
82823;PMS5003;72575;46.834;-71.234;2023-10-31T12:34:15;5;5;3.9
82823;PMS5003;72575;46.834;-71.234;2023-10-31T12:36:40;1.45;1.45;1
82823;PMS5003;72575;46.834;-71.234;2023-10-31T12:39:04;5;5;1.55
82823;PMS5003;72575;46.834;-71.234;2023-10-31T12:41:30;7.6;6.15;1.85
82823;PMS5003;72575;46.834;-71.234;2023-10-31T12:43:55;5.05;4.65;3.2
82823;PMS5003;72575;46.834;-71.234;2023-10-31T12:46:31;4.25;3.4;2.65
82823;PMS5003;72575;46.834;-71.234;2023-10-31T12:48:48;4.38;4.38;2.86
82823;PMS5003;72575;46.834;-71.234;2023-10-31T12:51:12;5;5;2.8
82823;PMS5003;72575;46.834;-71.234;2023-10-31T12:53:38;4.2;3.6;1.25
82823;PMS5003;72575;46.834;-71.234;2023-10-31T12:56:04;2.71;2.71;1.05
82823;PMS5003;72575;46.834;-71.234;2023-10-31T12:58:26;3.35;3.1;1.1
82823;PMS5003;72575;46.834;-71.234;2023-10-31T13:00:52;1.1;1.1;1.1
82823;PMS5003;72575;46.834;-71.234;2023-10-31T13:03:19;4.1;4.1;1.55
82823;PMS5003;72575;46.834;-71.234;2023-10-31T13:05:44;4.14;4.14;1.57
82823;PMS5003;72575;46.834;-71.234;2023-10-31T13:08:13;7.2;5.15;2
82823;PMS5003;72575;46.834;-71.234;2023-10-31T13:10:36;4.6;4.6;2
82823;PMS5003;72575;46.834;-71.234;2023-10-31T13:12:59;2.71;1.95;1
82823;PMS5003;72575;46.834;-71.234;2023-10-31T13:15:26;2.67;2.19;1.38
82823;PMS5003;72575;46.834;-71.234;2023-10-31T13:17:51;2.67;2.67;1
82823;PMS5003;72575;46.834;-71.234;2023-10-31T13:20:16;1.81;1.81;1.38
82823;PMS5003;72575;46.834;-71.234;2023-10-31T13:22:42;3.45;2.59;1.68
82823;PMS5003;72575;46.834;-71.234;2023-10-31T13:25:08;3.9;3.9;2
82823;PMS5003;72575;46.834;-71.234;2023-10-31T13:27:32;4;4;1.76
82823;PMS5003;72575;46.834;-71.234;2023-10-31T13:29:57;5.24;4.1;2
82823;PMS5003;72575;46.834;-71.234;2023-10-31T13:32:24;4.19;4.19;2.67
82823;PMS5003;72575;46.834;-71.234;2023-10-31T13:34:48;4.67;2.1;1.81
82823;PMS5003;72575;46.834;-71.234;2023-10-31T13:37:13;4.57;3.9;1.62
82823;PMS5003;72575;46.834;-71.234;2023-10-31T13:39:40;3.68;3;1.68
82823;PMS5003;72575;46.834;-71.234;2023-10-31T13:42:06;2.52;2.52;2
82823;PMS5003;72575;46.834;-71.234;2023-10-31T13:44:29;2.33;2.33;1.1
82823;PMS5003;72575;46.834;-71.234;2023-10-31T13:46:55;2.1;2.1;1
82823;PMS5003;72575;46.834;-71.234;2023-10-31T13:49:20;3.33;2.76;1
82823;PMS5003;72575;46.834;-71.234;2023-10-31T13:51:47;3.57;3.57;1.9
82823;PMS5003;72575;46.834;-71.234;2023-10-31T13:54:11;4.81;4.81;1.9
82823;PMS5003;72575;46.834;-71.234;2023-10-31T13:56:38;3.23;3.23;1.64
82823;PMS5003;72575;46.834;-71.234;2023-10-31T13:59:03;2.1;1.24;0.76
82823;PMS5003;72575;46.834;-71.234;2023-10-31T14:01:28;2;1.67;0.95
82823;PMS5003;72575;46.834;-71.234;2023-10-31T14:03:54;2.71;2.71;1.9
82823;PMS5003;72575;46.834;-71.234;2023-10-31T14:06:19;2;2;1.05
82823;PMS5003;72575;46.834;-71.234;2023-10-31T14:08:44;2;2;1
82823;PMS5003;72575;46.834;-71.234;2023-10-31T14:11:09;1.52;1.52;0.76
82823;PMS5003;72575;46.834;-71.234;2023-10-31T14:13:44;2.91;2.59;2.41